Mariner Of The Seas — C6FV9 — position and weather

sailwx.info

Track history (hours):
 
Tides and Currents Weather Stations Pressure Air Temp Water Temp Dewpoint Dewpoint Depression Visibility Wind Speed Wind Dir Waves Ship Positions

Mariner Of The Seas

Operator: Royal Caribbean Cruises Ltd

Last reported at 2014-Oct-18 14:29 UTC. Time now 2014-Oct-20 18:05 UTC.
Position N 31°12' E 122°33'.

Type: Passenger vessel. MMSI: 311493000.

Date/timePositionNaut miles runAvg speedWind from/ knotsBaromVisibWave heightAir tempDewpointWater temp
2014-Oct-18 14:29N 31°12' E 122°33'4013.0
2014-Oct-18 11:23N 31°18' E 121°46'8 9.1
2014-Oct-18 10:33N 31°22' E 121°38'8 7.6
2014-Oct-18 09:33N 31°25' E 121°30'0 0.0
2014-Oct-18 08:29N 31°25' E 121°30'0 0.0
2014-Oct-18 07:29N 31°25' E 121°30'0 0.0
2014-Oct-18 06:23N 31°25' E 121°30'0 0.0
2014-Oct-18 05:29N 31°25' E 121°30'0 0.0
2014-Oct-18 04:29N 31°25' E 121°30'0 0.0
2014-Oct-18 03:29N 31°25' E 121°30'0 0.0
2014-Oct-18 02:17N 31°25' E 121°30'0 0.0
2014-Oct-18 01:29N 31°25' E 121°30'0 0.0
2014-Oct-18 00:29N 31°25' E 121°30'0 0.0
2014-Oct-17 23:05N 31°25' E 121°30'0 0.2
2014-Oct-17 22:33N 31°25' E 121°30'9 9.4
2014-Oct-17 21:33N 31°21' E 121°40'1413.1
2014-Oct-17 20:27N 31°15' E 121°56'1010.8
2014-Oct-17 19:31N 31°13' E 122°07'1110.3
2014-Oct-17 18:24N 31°06' E 122°18'1011.6
2014-Oct-17 17:33N 31°08' E 122°30'  
2014-Oct-14 15:21N 31°19' E 121°45'1012.3
2014-Oct-14 14:33N 31°23' E 121°35'4 4.3
2014-Oct-14 13:32N 31°25' E 121°30'0 0.0
2014-Oct-14 12:32N 31°25' E 121°30'0 0.0
2014-Oct-14 11:26N 31°25' E 121°30'0 0.0
2014-Oct-14 10:32N 31°25' E 121°30'0 0.0
2014-Oct-14 09:32N 31°25' E 121°30'0 0.0
2014-Oct-14 08:26N 31°25' E 121°30'0 0.0
2014-Oct-14 07:32N 31°25' E 121°30'0 0.0
2014-Oct-14 06:32N 31°25' E 121°30'0 0.0
2014-Oct-14 05:32N 31°25' E 121°30'0 0.0
2014-Oct-14 04:32N 31°25' E 121°30'0 0.0
2014-Oct-14 03:26N 31°25' E 121°30'3 3.2
2014-Oct-14 02:33N 31°24' E 121°33'3912.0
2014-Oct-13 23:16N 31°08' E 122°15'1013.1
2014-Oct-13 22:28N 31°06' E 122°27'33419.3
2014-Oct-13 05:11N 36°40' E 122°49'1320.4
2014-Oct-13 04:34N 36°52' E 122°49'4118.6
2014-Oct-13 02:20N 37°33' E 122°39'1518.2
2014-Oct-13 01:30N 37°42' E 122°24'5518.8
2014-Oct-12 22:33N 38°15' E 121°27'16816.4
2014-Oct-12 12:18N 38°57' E 117°59'810.5
2014-Oct-12 11:33N 38°58' E 117°49'0 0.2
2014-Oct-12 10:28N 38°59' E 117°49'0 0.0
2014-Oct-12 09:28N 38°59' E 117°49'0 0.0
2014-Oct-12 08:28N 38°59' E 117°49'0 0.0
2014-Oct-12 07:28N 38°59' E 117°49'0 0.0
2014-Oct-12 06:28N 38°59' E 117°49'0 0.0
2014-Oct-12 05:28N 38°59' E 117°49'0 0.0
2014-Oct-12 04:28N 38°59' E 117°49'0 0.0
2014-Oct-12 03:28N 38°59' E 117°49'0 0.0
2014-Oct-12 02:28N 38°59' E 117°49'0 0.0
2014-Oct-12 01:28N 38°59' E 117°49'0 0.0
2014-Oct-12 00:28N 38°59' E 117°49'0 0.0
2014-Oct-11 23:28N 38°59' E 117°49'0 0.0
2014-Oct-11 22:28N 38°59' E 117°49'3 3.7
2014-Oct-11 21:33N 38°57' E 117°53'1211.1
2014-Oct-11 20:26N 38°55' E 118°09'12217.8
2014-Oct-11 13:33N 38°37' E 120°44'4615.4
2014-Oct-11 10:33N 38°18' E 121°37'1919.3
2014-Oct-11 09:33N 38°07' E 121°57'2019.3
2014-Oct-11 08:32N 37°54' E 122°16'1919.1
2014-Oct-11 07:33N 37°43' E 122°35'  
Track history (hours):
 
Tides and Currents Weather Stations Pressure Air Temp Water Temp Dewpoint Dewpoint Depression Visibility Wind Speed Wind Dir Waves Ship Positions

Mariner Of The Seas

Operator: Royal Caribbean Cruises Ltd

Last reported at 2014-Oct-18 14:29 UTC. Time now 2014-Oct-20 18:05 UTC.
Position N 31°12' E 122°33'.

Type: Passenger vessel. MMSI: 311493000.

Date/timePositionNaut miles runAvg speedWind from/ knotsBaromVisibWave heightAir tempDewpointWater temp
2014-Oct-18 14:29N 31°12' E 122°33'4013.0
2014-Oct-18 11:23N 31°18' E 121°46'8 9.1
2014-Oct-18 10:33N 31°22' E 121°38'8 7.6
2014-Oct-18 09:33N 31°25' E 121°30'0 0.0
2014-Oct-18 08:29N 31°25' E 121°30'0 0.0
2014-Oct-18 07:29N 31°25' E 121°30'0 0.0
2014-Oct-18 06:23N 31°25' E 121°30'0 0.0
2014-Oct-18 05:29N 31°25' E 121°30'0 0.0
2014-Oct-18 04:29N 31°25' E 121°30'0 0.0
2014-Oct-18 03:29N 31°25' E 121°30'0 0.0
2014-Oct-18 02:17N 31°25' E 121°30'0 0.0
2014-Oct-18 01:29N 31°25' E 121°30'0 0.0
2014-Oct-18 00:29N 31°25' E 121°30'0 0.0
2014-Oct-17 23:05N 31°25' E 121°30'0 0.2
2014-Oct-17 22:33N 31°25' E 121°30'9 9.4
2014-Oct-17 21:33N 31°21' E 121°40'1413.1
2014-Oct-17 20:27N 31°15' E 121°56'1010.8
2014-Oct-17 19:31N 31°13' E 122°07'1110.3
2014-Oct-17 18:24N 31°06' E 122°18'1011.6
2014-Oct-17 17:33N 31°08' E 122°30'  
2014-Oct-14 15:21N 31°19' E 121°45'1012.3
2014-Oct-14 14:33N 31°23' E 121°35'4 4.3
2014-Oct-14 13:32N 31°25' E 121°30'0 0.0
2014-Oct-14 12:32N 31°25' E 121°30'0 0.0
2014-Oct-14 11:26N 31°25' E 121°30'0 0.0
2014-Oct-14 10:32N 31°25' E 121°30'0 0.0
2014-Oct-14 09:32N 31°25' E 121°30'0 0.0
2014-Oct-14 08:26N 31°25' E 121°30'0 0.0
2014-Oct-14 07:32N 31°25' E 121°30'0 0.0
2014-Oct-14 06:32N 31°25' E 121°30'0 0.0
2014-Oct-14 05:32N 31°25' E 121°30'0 0.0
2014-Oct-14 04:32N 31°25' E 121°30'0 0.0
2014-Oct-14 03:26N 31°25' E 121°30'3 3.2
2014-Oct-14 02:33N 31°24' E 121°33'3912.0
2014-Oct-13 23:16N 31°08' E 122°15'1013.1
2014-Oct-13 22:28N 31°06' E 122°27'33419.3
2014-Oct-13 05:11N 36°40' E 122°49'1320.4
2014-Oct-13 04:34N 36°52' E 122°49'4118.6
2014-Oct-13 02:20N 37°33' E 122°39'1518.2
2014-Oct-13 01:30N 37°42' E 122°24'5518.8
2014-Oct-12 22:33N 38°15' E 121°27'16816.4
2014-Oct-12 12:18N 38°57' E 117°59'810.5
2014-Oct-12 11:33N 38°58' E 117°49'0 0.2
2014-Oct-12 10:28N 38°59' E 117°49'0 0.0
2014-Oct-12 09:28N 38°59' E 117°49'0 0.0
2014-Oct-12 08:28N 38°59' E 117°49'0 0.0
2014-Oct-12 07:28N 38°59' E 117°49'0 0.0
2014-Oct-12 06:28N 38°59' E 117°49'0 0.0
2014-Oct-12 05:28N 38°59' E 117°49'0 0.0
2014-Oct-12 04:28N 38°59' E 117°49'0 0.0
2014-Oct-12 03:28N 38°59' E 117°49'0 0.0
2014-Oct-12 02:28N 38°59' E 117°49'0 0.0
2014-Oct-12 01:28N 38°59' E 117°49'0 0.0
2014-Oct-12 00:28N 38°59' E 117°49'0 0.0
2014-Oct-11 23:28N 38°59' E 117°49'0 0.0
2014-Oct-11 22:28N 38°59' E 117°49'3 3.7
2014-Oct-11 21:33N 38°57' E 117°53'1211.1
2014-Oct-11 20:26N 38°55' E 118°09'12217.8
2014-Oct-11 13:33N 38°37' E 120°44'4615.4
2014-Oct-11 10:33N 38°18' E 121°37'1919.3
2014-Oct-11 09:33N 38°07' E 121°57'2019.3
2014-Oct-11 08:32N 37°54' E 122°16'1919.1
2014-Oct-11 07:33N 37°43' E 122°35'  

Dump ship's entire track history